createdAt,value
2022-12-03T00:00:10.436Z,100649.94
2022-12-03T00:02:40.465Z,100637.72
2022-12-03T00:05:09.631Z,100644.66
2022-12-03T00:07:38.455Z,100651.63
2022-12-03T00:10:07.854Z,100652.47
2022-12-03T00:12:36.072Z,100648.09
2022-12-03T00:15:06.109Z,100652.47
2022-12-03T00:17:34.009Z,100647.28
2022-12-03T00:20:02.201Z,100648.97
2022-12-03T00:22:29.992Z,100654.31
2022-12-03T00:24:58.963Z,100646.38
2022-12-03T00:27:28.161Z,100642.88
2022-12-03T00:29:55.957Z,100646.31
2022-12-03T00:32:23.927Z,100652.50
2022-12-03T00:34:52.547Z,100648.97
2022-12-03T00:37:20.765Z,100641.97
2022-12-03T00:39:49.007Z,100649.91
2022-12-03T00:42:16.761Z,100649.03
2022-12-03T00:44:46.466Z,100642.00
2022-12-03T00:47:15.589Z,100648.16
2022-12-03T00:49:44.452Z,100642.84
2022-12-03T00:52:13.684Z,100648.09
2022-12-03T00:54:42.833Z,100646.31
2022-12-03T00:57:11.078Z,100654.25
2022-12-03T00:59:39.174Z,100639.34
2022-12-03T01:02:07.316Z,100641.09
2022-12-03T01:04:36.451Z,100646.38
2022-12-03T01:07:05.695Z,100630.66
2022-12-03T01:09:33.842Z,100642.88
2022-12-03T01:12:02.028Z,100643.72
2022-12-03T01:14:30.112Z,100645.50
2022-12-03T01:16:58.065Z,100640.22
2022-12-03T01:19:26.453Z,100645.50
2022-12-03T01:21:55.535Z,100649.94
2022-12-03T01:24:23.392Z,100656.03
2022-12-03T01:26:51.927Z,100649.00
2022-12-03T01:29:20.761Z,100653.38
2022-12-03T01:32:08.429Z,100658.66
2022-12-03T01:34:36.281Z,100665.69
2022-12-03T01:37:04.622Z,100654.22
2022-12-03T01:39:33.450Z,100654.22
2022-12-03T01:42:03.042Z,100658.50
2022-12-03T01:44:34.874Z,100665.53
2022-12-03T01:47:10.823Z,100668.16
2022-12-03T01:49:46.696Z,100667.28
2022-12-03T01:52:23.671Z,100658.56
2022-12-03T01:54:59.197Z,100663.78
2022-12-03T01:57:48.469Z,100662.88
2022-12-03T02:00:23.020Z,100648.84
2022-12-03T02:02:57.345Z,100663.75
2022-12-03T02:05:33.563Z,100667.25
2022-12-03T02:08:01.814Z,100667.22
2022-12-03T02:10:36.181Z,100668.97
2022-12-03T02:13:09.108Z,100668.91
2022-12-03T02:15:39.430Z,100666.25
2022-12-03T02:18:09.440Z,100664.53
2022-12-03T02:21:00.710Z,100667.06
2022-12-03T02:23:50.692Z,100674.13
2022-12-03T02:26:18.974Z,100674.19
2022-12-03T02:28:47.264Z,100652.31
2022-12-03T02:31:16.520Z,100666.31
2022-12-03T02:33:45.644Z,100662.81
2022-12-03T02:36:13.699Z,100664.53
2022-12-03T02:38:43.747Z,100655.75
2022-12-03T02:41:36.941Z,100660.97
2022-12-03T02:44:07.558Z,100660.16
2022-12-03T02:46:36.551Z,100675.09
2022-12-03T02:49:07.851Z,100666.34
2022-12-03T02:51:37.497Z,100664.47
2022-12-03T02:54:05.756Z,100646.09
2022-12-03T02:56:33.882Z,100659.19
2022-12-03T02:59:05.138Z,100668.00
2022-12-03T03:01:35.184Z,100662.69
2022-12-03T03:04:05.742Z,100661.81
2022-12-03T03:06:35.063Z,100654.88
2022-12-03T03:09:04.477Z,100653.13
2022-12-03T03:11:32.733Z,100643.47
2022-12-03T03:14:03.689Z,100648.75
2022-12-03T03:16:35.484Z,100649.84
2022-12-03T03:19:05.774Z,100655.94
2022-12-03T03:21:33.987Z,100655.00
2022-12-03T03:24:01.802Z,100655.00
2022-12-03T03:26:29.880Z,100650.59
2022-12-03T03:29:00.329Z,100660.19
2022-12-03T03:31:29.335Z,100655.78
2022-12-03T03:33:58.635Z,100651.38
2022-12-03T03:36:27.787Z,100643.50
2022-12-03T03:38:56.525Z,100647.84
2022-12-03T03:41:27.348Z,100659.22
2022-12-03T03:43:55.870Z,100653.06
2022-12-03T03:46:23.996Z,100636.44
2022-12-03T03:48:52.519Z,100651.22
2022-12-03T03:51:21.292Z,100650.28
2022-12-03T03:53:51.601Z,100646.81
2022-12-03T03:56:22.772Z,100647.72
2022-12-03T03:58:51.621Z,100650.38
2022-12-03T04:01:19.712Z,100647.75
2022-12-03T04:03:47.894Z,100640.66
2022-12-03T04:06:17.624Z,100645.06
2022-12-03T04:08:45.910Z,100642.44
2022-12-03T04:11:33.083Z,100653.91
2022-12-03T04:14:02.844Z,100631.16
2022-12-03T04:16:30.861Z,100643.41
2022-12-03T04:18:59.000Z,100652.22
2022-12-03T04:21:45.564Z,100643.47
2022-12-03T04:24:13.793Z,100644.34
2022-12-03T04:27:00.626Z,100640.84
2022-12-03T04:29:29.029Z,100648.75
2022-12-03T04:32:15.736Z,100638.22
2022-12-03T04:35:02.466Z,100642.63
2022-12-03T04:37:30.363Z,100639.13
2022-12-03T04:39:58.529Z,100635.66
2022-12-03T04:42:26.633Z,100647.03
2022-12-03T04:44:55.158Z,100639.13
2022-12-03T04:47:23.327Z,100630.34
2022-12-03T04:49:52.450Z,100634.72
2022-12-03T04:52:22.429Z,100637.31
2022-12-03T04:54:50.663Z,100636.53
2022-12-03T04:57:19.829Z,100642.66
2022-12-03T04:59:47.969Z,100637.34
2022-12-03T05:02:16.571Z,100629.47
2022-12-03T05:04:44.475Z,100634.72
2022-12-03T05:07:12.463Z,100634.72
2022-12-03T05:09:41.645Z,100624.19
2022-12-03T05:12:09.902Z,100628.59
2022-12-03T05:14:38.018Z,100625.13
2022-12-03T05:17:06.564Z,100634.72
2022-12-03T05:19:53.581Z,100641.75
2022-12-03T05:22:22.139Z,100628.56
2022-12-03T05:24:50.086Z,100621.59
2022-12-03T05:27:23.501Z,100629.44
2022-12-03T05:29:53.187Z,100627.59
2022-12-03T05:32:21.076Z,100631.97
2022-12-03T05:34:49.228Z,100622.38
2022-12-03T05:37:17.086Z,100625.84
2022-12-03T05:39:45.373Z,100627.59
2022-12-03T05:42:33.130Z,100624.09
2022-12-03T05:45:01.410Z,100606.69
2022-12-03T05:47:29.386Z,100614.53
2022-12-03T05:49:57.522Z,100619.75
2022-12-03T05:52:25.212Z,100595.28
2022-12-03T05:54:54.346Z,100600.50
2022-12-03T05:57:23.001Z,100609.25
2022-12-03T05:59:51.313Z,100608.38
2022-12-03T06:02:19.852Z,100608.38
2022-12-03T06:04:49.130Z,100604.88
2022-12-03T06:07:17.638Z,100600.44
2022-12-03T06:09:49.388Z,100606.53
2022-12-03T06:12:18.676Z,100612.81
2022-12-03T06:14:46.940Z,100617.16
2022-12-03T06:17:16.165Z,100626.88
2022-12-03T06:19:45.137Z,100629.47
2022-12-03T06:22:13.219Z,100627.66
2022-12-03T06:24:42.184Z,100627.66
2022-12-03T06:27:10.533Z,100622.41
2022-12-03T06:29:41.502Z,100628.56
2022-12-03T06:32:10.113Z,100624.28
2022-12-03T06:34:38.771Z,100624.25
2022-12-03T06:37:08.217Z,100628.59
2022-12-03T06:39:36.368Z,100626.78
2022-12-03T06:42:04.406Z,100632.16
2022-12-03T06:44:32.306Z,100616.38
2022-12-03T06:47:00.387Z,100625.19
2022-12-03T06:49:29.159Z,100622.66
2022-12-03T06:51:57.331Z,100623.59
2022-12-03T06:54:25.553Z,100635.03
2022-12-03T06:56:54.005Z,100632.44
2022-12-03T06:59:22.255Z,100638.69
2022-12-03T07:01:50.565Z,100642.28
2022-12-03T07:04:19.253Z,100647.59
2022-12-03T07:06:48.545Z,100652.03
2022-12-03T07:09:17.462Z,100651.25
2022-12-03T07:11:45.610Z,100640.78
2022-12-03T07:14:14.814Z,100652.22
2022-12-03T07:16:44.017Z,100644.38
2022-12-03T07:19:14.143Z,100649.72
2022-12-03T07:21:42.645Z,100638.38
2022-12-03T07:24:10.942Z,100638.34
2022-12-03T07:26:38.981Z,100643.72
2022-12-03T07:29:08.673Z,100642.00
2022-12-03T07:31:36.920Z,100641.16
2022-12-03T07:34:05.679Z,100635.09
2022-12-03T07:36:33.854Z,100638.63
2022-12-03T07:39:02.326Z,100633.41
2022-12-03T07:41:30.285Z,100631.66
2022-12-03T07:43:58.489Z,100628.13
2022-12-03T07:46:27.002Z,100616.84
2022-12-03T07:48:56.046Z,100631.72
2022-12-03T07:51:30.500Z,100643.09
2022-12-03T07:53:59.939Z,100639.56
2022-12-03T07:56:27.872Z,100637.84
2022-12-03T07:58:56.657Z,100631.72
2022-12-03T08:01:25.268Z,100632.56
2022-12-03T08:03:53.819Z,100634.34
2022-12-03T08:06:21.955Z,100631.75
2022-12-03T08:08:49.928Z,100639.56
2022-12-03T08:11:18.545Z,100642.25
2022-12-03T08:13:49.647Z,100643.09
2022-12-03T08:16:21.730Z,100652.78
2022-12-03T08:18:51.055Z,100632.63
2022-12-03T08:21:21.331Z,100643.97
2022-12-03T08:23:49.645Z,100650.13
2022-12-03T08:26:28.417Z,100649.22
2022-12-03T08:28:58.026Z,100657.97
2022-12-03T08:31:32.975Z,100654.44
2022-12-03T08:34:31.613Z,100642.13
2022-12-03T08:37:09.417Z,100625.41
2022-12-03T08:39:46.479Z,100626.25
2022-12-03T08:42:44.923Z,100620.94
2022-12-03T08:45:40.061Z,100628.81
2022-12-03T08:48:37.987Z,100611.25
2022-12-03T08:51:27.704Z,100621.75
2022-12-03T08:54:07.804Z,100616.44
2022-12-03T08:56:39.343Z,100619.91
2022-12-03T08:59:32.174Z,100618.03
2022-12-03T09:02:00.540Z,100628.59
2022-12-03T09:04:46.689Z,100627.56
2022-12-03T09:07:14.766Z,100638.13
2022-12-03T09:09:42.814Z,100628.41
2022-12-03T09:12:10.824Z,100625.78
2022-12-03T09:14:38.905Z,100633.59
2022-12-03T09:17:07.811Z,100615.03
2022-12-03T09:19:36.708Z,100620.22
2022-12-03T09:22:07.624Z,100618.34
2022-12-03T09:24:35.529Z,100618.28
2022-12-03T09:27:04.659Z,100632.31
2022-12-03T09:29:33.412Z,100638.41
2022-12-03T09:32:03.004Z,100618.16
2022-12-03T09:34:32.724Z,100629.44
2022-12-03T09:37:03.407Z,100635.53
2022-12-03T09:39:34.115Z,100628.50
2022-12-03T09:42:03.823Z,100612.66
2022-12-03T09:44:36.013Z,100623.94
2022-12-03T09:47:06.563Z,100608.94
2022-12-03T09:49:37.366Z,100602.84
2022-12-03T09:52:07.718Z,100622.97
2022-12-03T09:54:42.771Z,100608.91
2022-12-03T09:57:13.836Z,100602.78
2022-12-03T09:59:42.261Z,100613.22
2022-12-03T10:02:36.876Z,100607.03
2022-12-03T10:05:06.589Z,100606.16
2022-12-03T10:07:35.564Z,100606.09
2022-12-03T10:10:07.235Z,100588.56
2022-12-03T10:12:35.952Z,100585.75
2022-12-03T10:15:06.495Z,100603.16
2022-12-03T10:17:36.103Z,100603.06
2022-12-03T10:20:17.017Z,100587.03
2022-12-03T10:22:49.960Z,100593.03
2022-12-03T10:25:33.216Z,100572.69
2022-12-03T10:28:16.058Z,100571.78
2022-12-03T10:30:56.422Z,100565.50
2022-12-03T10:33:42.117Z,100555.75
2022-12-03T10:36:31.521Z,100555.78
2022-12-03T10:39:19.391Z,100562.69
2022-12-03T10:42:16.616Z,100551.97
2022-12-03T10:44:47.910Z,100556.28
2022-12-03T10:47:21.225Z,100552.69
2022-12-03T10:50:04.576Z,100549.13
2022-12-03T10:52:35.119Z,100557.78
2022-12-03T10:55:03.923Z,100554.25
2022-12-03T10:57:32.172Z,100547.94
2022-12-03T11:00:05.077Z,100542.50
2022-12-03T11:02:33.014Z,100549.59
2022-12-03T11:05:01.364Z,100544.19
2022-12-03T11:07:31.364Z,100531.00
2022-12-03T11:10:02.692Z,100537.00
2022-12-03T11:12:36.693Z,100530.78
2022-12-03T11:15:06.640Z,100508.81
2022-12-03T11:17:52.940Z,100525.41
2022-12-03T11:20:22.996Z,100519.28
2022-12-03T11:22:56.205Z,100510.34
2022-12-03T11:25:28.006Z,100512.06
2022-12-03T11:28:14.723Z,100505.81
2022-12-03T11:30:51.776Z,100511.06
2022-12-03T11:33:27.564Z,100515.44
2022-12-03T11:36:05.537Z,100508.28
2022-12-03T11:38:37.888Z,100507.25
2022-12-03T11:41:15.625Z,100495.84
2022-12-03T11:44:23.799Z,100493.19
2022-12-03T11:46:52.105Z,100494.06
2022-12-03T11:49:28.519Z,100494.00
2022-12-03T11:51:59.215Z,100490.47
2022-12-03T11:54:28.588Z,100494.81
2022-12-03T11:56:56.589Z,100492.00
2022-12-03T11:59:28.857Z,100489.25
2022-12-03T12:01:56.874Z,100470.03
2022-12-03T12:04:34.051Z,100477.72
2022-12-03T12:07:03.791Z,100471.50
2022-12-03T12:10:09.083Z,100476.69
2022-12-03T12:12:54.712Z,100469.53
2022-12-03T12:15:44.199Z,100470.19
2022-12-03T12:18:43.407Z,100462.22
2022-12-03T12:21:48.243Z,100457.00
2022-12-03T12:24:40.864Z,100449.00
2022-12-03T12:27:22.674Z,100443.69
2022-12-03T12:29:58.049Z,100443.69
2022-12-03T12:32:34.948Z,100437.44
2022-12-03T12:35:30.150Z,100440.91
2022-12-03T12:38:07.453Z,100442.66
2022-12-03T12:40:39.103Z,100428.56
2022-12-03T12:43:25.336Z,100437.22
2022-12-03T12:46:18.765Z,100436.34
2022-12-03T12:48:49.988Z,100431.16
2022-12-03T12:51:19.237Z,100437.34
2022-12-03T12:53:49.838Z,100430.31
2022-12-03T12:56:35.192Z,100424.97
2022-12-03T12:59:17.073Z,100425.84
2022-12-03T13:01:49.514Z,100423.22
2022-12-03T13:04:22.795Z,100418.72
2022-12-03T13:06:55.038Z,100419.53
2022-12-03T13:09:25.679Z,100420.44
2022-12-03T13:12:00.983Z,100420.44
2022-12-03T13:14:37.062Z,100418.66
2022-12-03T13:17:21.055Z,100416.00
2022-12-03T13:20:02.003Z,100411.72
2022-12-03T13:22:35.014Z,100407.34
2022-12-03T13:25:59.381Z,100407.41
2022-12-03T13:28:30.157Z,100401.19
2022-12-03T13:31:24.243Z,100402.00
2022-12-03T13:33:53.698Z,100397.84
2022-12-03T13:36:36.875Z,100405.69
2022-12-03T13:39:23.632Z,100399.53
2022-12-03T13:42:10.347Z,100398.81
2022-12-03T13:44:45.694Z,100393.59
2022-12-03T13:47:24.667Z,100391.00
2022-12-03T13:49:59.040Z,100394.44
2022-12-03T13:52:27.658Z,100401.63
2022-12-03T13:54:58.488Z,100404.31
2022-12-03T13:57:28.455Z,100388.47
2022-12-03T13:59:56.873Z,100404.31
2022-12-03T14:02:24.916Z,100402.56
2022-12-03T14:04:59.780Z,100404.34
2022-12-03T14:07:28.624Z,100399.00
2022-12-03T14:09:57.059Z,100399.97
2022-12-03T14:12:30.304Z,100389.50
2022-12-03T14:14:58.224Z,100393.88
2022-12-03T14:17:26.605Z,100407.13
2022-12-03T14:19:55.205Z,100403.78
2022-12-03T14:22:25.300Z,100409.94
2022-12-03T14:24:55.325Z,100414.56
2022-12-03T14:27:25.897Z,100429.41
2022-12-03T14:29:58.392Z,100426.75
2022-12-03T14:32:26.495Z,100430.28
2022-12-03T14:34:54.985Z,100426.81
2022-12-03T14:37:23.341Z,100418.94
2022-12-03T14:39:53.296Z,100425.97
2022-12-03T14:42:25.042Z,100436.56
2022-12-03T14:44:53.997Z,100430.44
2022-12-03T14:47:23.177Z,100422.56
2022-12-03T14:49:53.084Z,100433.16
2022-12-03T14:52:23.850Z,100429.75
2022-12-03T14:54:52.811Z,100426.28
2022-12-03T14:57:21.520Z,100417.69
2022-12-03T14:59:49.875Z,100430.03
2022-12-03T15:02:18.511Z,100429.22
2022-12-03T15:04:46.419Z,100406.56
2022-12-03T15:07:15.409Z,100424.75
2022-12-03T15:09:43.674Z,100434.41
2022-12-03T15:12:12.347Z,100420.44
2022-12-03T15:14:41.852Z,100430.00
2022-12-03T15:17:10.443Z,100421.19
2022-12-03T15:19:54.731Z,100414.22
2022-12-03T15:22:24.255Z,100401.09
2022-12-03T15:24:52.133Z,100416.88
2022-12-03T15:27:20.038Z,100429.22
2022-12-03T15:29:48.326Z,100423.22
2022-12-03T15:32:16.441Z,100414.44
2022-12-03T15:34:44.598Z,100419.81
2022-12-03T15:37:14.960Z,100420.72
2022-12-03T15:39:48.336Z,100416.44
2022-12-03T15:42:17.553Z,100422.56
2022-12-03T15:44:47.702Z,100416.38
2022-12-03T15:47:15.659Z,100416.44
2022-12-03T15:49:46.156Z,100409.47
2022-12-03T15:52:14.329Z,100411.25
2022-12-03T15:54:43.712Z,100413.88
2022-12-03T15:57:12.919Z,100423.53
2022-12-03T15:59:42.950Z,100419.03
2022-12-03T16:02:11.205Z,100424.28
2022-12-03T16:04:39.582Z,100424.19
2022-12-03T16:07:10.296Z,100422.50
2022-12-03T16:09:39.107Z,100420.78
2022-12-03T16:12:07.721Z,100425.19
2022-12-03T16:14:36.582Z,100417.31
2022-12-03T16:17:05.322Z,100420.94
2022-12-03T16:19:33.496Z,100421.03
2022-12-03T16:22:02.657Z,100413.28
2022-12-03T16:24:32.955Z,100420.31
2022-12-03T16:27:00.914Z,100427.28
2022-12-03T16:29:30.275Z,100412.41
2022-12-03T16:31:59.321Z,100416.75
2022-12-03T16:34:28.410Z,100423.72
2022-12-03T16:37:16.685Z,100415.16
2022-12-03T16:39:54.943Z,100414.28
2022-12-03T16:42:24.171Z,100413.38
2022-12-03T16:45:08.945Z,100412.50
2022-12-03T16:47:37.731Z,100413.38
2022-12-03T16:50:10.614Z,100413.31
2022-12-03T16:52:41.561Z,100412.50
2022-12-03T16:55:10.618Z,100411.66
2022-12-03T16:57:39.245Z,100411.78
2022-12-03T17:00:09.493Z,100404.91
2022-12-03T17:02:37.938Z,100386.44
2022-12-03T17:05:07.939Z,100396.97
2022-12-03T17:07:36.383Z,100402.22
2022-12-03T17:10:07.479Z,100392.53
2022-12-03T17:13:07.149Z,100397.06
2022-12-03T17:15:24.120Z,100393.44
2022-12-03T17:17:52.739Z,100396.06
2022-12-03T17:20:23.493Z,100398.66
2022-12-03T17:22:52.039Z,100393.38
2022-12-03T17:25:20.997Z,100394.22
2022-12-03T17:27:49.868Z,100399.53
2022-12-03T17:30:18.400Z,100397.66
2022-12-03T17:32:49.641Z,100393.25
2022-12-03T17:35:18.814Z,100400.25
2022-12-03T17:37:47.316Z,100404.63
2022-12-03T17:40:17.338Z,100395.72
2022-12-03T17:42:45.605Z,100404.50
2022-12-03T17:45:13.872Z,100390.41
2022-12-03T17:47:42.033Z,100394.94
2022-12-03T17:50:11.202Z,100397.69
2022-12-03T17:52:40.860Z,100384.59
2022-12-03T17:55:18.105Z,100386.38
2022-12-03T17:57:53.203Z,100364.69
2022-12-03T18:00:25.073Z,100381.28
2022-12-03T18:02:53.374Z,100387.53
2022-12-03T18:05:23.179Z,100378.09
2022-12-03T18:07:52.064Z,100382.38
2022-12-03T18:10:22.040Z,100385.84
2022-12-03T18:12:50.590Z,100392.09
2022-12-03T18:15:18.791Z,100389.50
2022-12-03T18:17:48.320Z,100381.66
2022-12-03T18:20:17.174Z,100386.00
2022-12-03T18:22:46.282Z,100379.94
2022-12-03T18:25:15.004Z,100375.69
2022-12-03T18:27:45.668Z,100368.88
2022-12-03T18:30:14.978Z,100376.97
2022-12-03T18:32:45.917Z,100373.41
2022-12-03T18:35:15.466Z,100381.22
2022-12-03T18:37:43.824Z,100360.22
2022-12-03T18:40:24.967Z,100374.09
2022-12-03T18:42:55.838Z,100372.41
2022-12-03T18:45:24.185Z,100375.09
2022-12-03T18:47:52.721Z,100367.16
2022-12-03T18:50:21.451Z,100364.41
2022-12-03T18:52:49.697Z,100377.47
2022-12-03T18:55:19.876Z,100380.03
2022-12-03T18:57:47.763Z,100370.41
2022-12-03T19:00:16.470Z,100374.00
2022-12-03T19:05:34.802Z,100382.94
2022-12-03T19:08:04.136Z,100377.72
2022-12-03T19:10:34.827Z,100383.91
2022-12-03T19:13:04.605Z,100374.41
2022-12-03T19:15:40.147Z,100373.63
2022-12-03T19:18:08.782Z,100380.66
2022-12-03T19:20:41.412Z,100364.69
2022-12-03T19:23:10.325Z,100366.50
2022-12-03T19:25:39.291Z,100370.88
2022-12-03T19:28:08.401Z,100373.56
2022-12-03T19:30:38.140Z,100367.47
2022-12-03T19:33:07.401Z,100364.81
2022-12-03T19:35:40.161Z,100356.91
2022-12-03T19:38:09.264Z,100357.75
2022-12-03T19:40:37.014Z,100356.00
2022-12-03T19:43:06.209Z,100362.19
2022-12-03T19:45:37.131Z,100363.81
2022-12-03T19:48:06.556Z,100357.81
2022-12-03T19:50:34.914Z,100348.91
2022-12-03T19:53:02.788Z,100369.19
2022-12-03T19:55:34.742Z,100362.19
2022-12-03T19:58:03.398Z,100364.91
2022-12-03T20:00:31.908Z,100362.22
2022-12-03T20:03:00.152Z,100358.53
2022-12-03T20:05:33.180Z,100364.59
2022-12-03T20:08:02.144Z,100359.44
2022-12-03T20:10:30.906Z,100364.09
2022-12-03T20:13:00.777Z,100357.16
2022-12-03T20:15:30.259Z,100338.59
2022-12-03T20:17:59.528Z,100368.38
2022-12-03T20:20:30.105Z,100362.97
2022-12-03T20:22:58.575Z,100370.81
2022-12-03T20:25:27.887Z,100369.81
2022-12-03T20:27:56.791Z,100366.16
2022-12-03T20:30:26.541Z,100361.69
2022-12-03T20:32:58.380Z,100371.38
2022-12-03T20:35:27.450Z,100368.13
2022-12-03T20:37:56.195Z,100365.38
2022-12-03T20:40:25.081Z,100354.84
2022-12-03T20:42:53.252Z,100365.34
2022-12-03T20:45:21.169Z,100352.94
2022-12-03T20:47:49.855Z,100362.47
2022-12-03T20:50:19.718Z,100365.00
2022-12-03T20:53:09.345Z,100354.53
2022-12-03T20:55:36.443Z,100337.97
2022-12-03T20:58:04.787Z,100334.47
2022-12-03T21:00:33.860Z,100337.06
2022-12-03T21:03:02.479Z,100337.88
2022-12-03T21:05:30.841Z,100337.94
2022-12-03T21:07:59.483Z,100348.50
2022-12-03T21:10:37.222Z,100345.00
2022-12-03T21:13:05.772Z,100341.59
2022-12-03T21:15:34.566Z,100346.81
2022-12-03T21:18:05.513Z,100333.66
2022-12-03T21:20:42.243Z,100338.13
2022-12-03T21:23:12.170Z,100330.31
2022-12-03T21:25:42.082Z,100333.09
2022-12-03T21:28:10.988Z,100340.13
2022-12-03T21:30:40.642Z,100332.19
2022-12-03T21:33:09.965Z,100318.19
2022-12-03T21:35:39.616Z,100332.97
2022-12-03T21:38:09.066Z,100332.88
2022-12-03T21:40:38.242Z,100331.97
2022-12-03T21:43:06.878Z,100327.47
2022-12-03T21:45:35.902Z,100316.91
2022-12-03T21:48:04.844Z,100320.34
2022-12-03T21:50:34.532Z,100327.25
2022-12-03T21:53:03.431Z,100329.84
2022-12-03T21:55:31.842Z,100330.75
2022-12-03T21:58:02.057Z,100328.06
2022-12-03T22:00:30.993Z,100314.03
2022-12-03T22:02:59.778Z,100326.25
2022-12-03T22:05:28.430Z,100318.31
2022-12-03T22:07:56.564Z,100319.13
2022-12-03T22:10:24.860Z,100322.66
2022-12-03T22:12:53.470Z,100306.00
2022-12-03T22:15:22.531Z,100327.97
2022-12-03T22:17:50.456Z,100324.59
2022-12-03T22:20:19.041Z,100310.63
2022-12-03T22:22:48.025Z,100322.09
2022-12-03T22:25:17.419Z,100332.63
2022-12-03T22:27:45.595Z,100329.19
2022-12-03T22:30:14.147Z,100321.31
2022-12-03T22:32:42.723Z,100320.50
2022-12-03T22:35:11.164Z,100306.56
2022-12-03T22:37:39.832Z,100317.91
2022-12-03T22:40:08.332Z,100319.75
2022-12-03T22:42:36.198Z,100314.50
2022-12-03T22:45:07.852Z,100316.16
2022-12-03T22:47:35.566Z,100297.22
2022-12-03T22:50:04.121Z,100314.47
2022-12-03T22:52:32.921Z,100293.34
2022-12-03T22:55:01.056Z,100306.31
2022-12-03T22:57:32.715Z,100296.63
2022-12-03T23:00:02.896Z,100298.31
2022-12-03T23:02:31.460Z,100280.72
2022-12-03T23:05:00.097Z,100282.59
2022-12-03T23:07:28.622Z,100290.56
2022-12-03T23:09:57.642Z,100298.50
2022-12-03T23:12:26.213Z,100294.13
2022-12-03T23:14:55.457Z,100276.63
2022-12-03T23:17:23.854Z,100281.78
2022-12-03T23:19:53.140Z,100286.94
2022-12-03T23:22:21.905Z,100287.81
2022-12-03T23:24:49.806Z,100282.53
2022-12-03T23:27:17.750Z,100283.41
2022-12-03T23:29:45.714Z,100277.34
2022-12-03T23:32:14.599Z,100294.13
2022-12-03T23:34:42.492Z,100297.63
2022-12-03T23:37:10.783Z,100277.56
2022-12-03T23:39:39.886Z,100285.47
2022-12-03T23:42:09.331Z,100295.09
2022-12-03T23:44:37.579Z,100300.34
2022-12-03T23:47:06.277Z,100293.22
2022-12-03T23:49:34.357Z,100307.38
2022-12-03T23:52:02.554Z,100307.44
2022-12-03T23:54:30.971Z,100310.13
2022-12-03T23:57:00.108Z,100294.31
2022-12-03T23:59:29.088Z,100301.25
